Time;durP1;ratioP1;P1;durP2;ratioP2;P2;SDS_P1;SDS_P2;PMS_P1;PMS_P2;Temp;Humidity;BMP_temperature;BMP_pressure;BME280_temperature;BME280_humidity;BME280_pressure;Samples;Min_cycle;Max_cycle;Signal;HPM_P1;HPM_P2
2024/01/19 00:00:21;;;;;;;4.82;0.90;;;1.80;99.90;;;;;;5026180;28;20049;-53
2024/01/19 00:02:47;;;;;;;5.38;1.10;;;;;;;;;;5027335;28;20124;-51
2024/01/19 00:05:13;;;;;;;6.50;1.33;;;;;;;;;;5029462;28;20045;-52
2024/01/19 00:07:38;;;;;;;7.53;1.33;;;1.90;99.90;;;;;;5028498;28;20029;-52
2024/01/19 00:10:04;;;;;;;5.15;1.30;;;;;;;;;;5029248;28;20045;-51
2024/01/19 00:12:35;;;;;;;3.70;1.10;;;1.80;99.90;;;;;;5025959;28;20120;-52
2024/01/19 00:15:01;;;;;;;3.58;1.13;;;;;;;;;;5026993;28;20041;-55
2024/01/19 00:17:27;;;;;;;4.72;1.27;;;1.70;99.90;;;;;;5021128;28;20128;-54
2024/01/19 00:19:53;;;;;;;3.22;1.00;;;;;;;;;;5028948;28;20128;-55
2024/01/19 00:22:19;;;;;;;3.95;1.10;;;;;;;;;;5028427;28;20501;-54
2024/01/19 00:24:45;;;;;;;4.28;1.20;;;;;;;;;;5028120;28;20041;-55
2024/01/19 00:27:11;;;;;;;6.50;1.30;;;;;;;;;;5023540;28;20107;-55
2024/01/19 00:29:37;;;;;;;4.18;1.10;;;;;;;;;;5027757;28;20049;-55
2024/01/19 00:32:03;;;;;;;4.28;1.02;;;;;;;;;;5028441;28;20641;-54
2024/01/19 00:34:29;;;;;;;5.70;1.27;;;;;;;;;;5105862;22;20045;-58
2024/01/19 00:36:55;;;;;;;4.18;0.90;;;;;;;;;;5041786;28;20044;-58
2024/01/19 00:39:21;;;;;;;4.72;0.98;;;;;;;;;;5031527;28;20041;-55
2024/01/19 00:41:47;;;;;;;6.55;1.23;;;;;;;;;;5025249;28;20073;-58
2024/01/19 00:44:13;;;;;;;4.82;1.15;;;;;;;;;;5025436;28;20579;-58
2024/01/19 00:46:39;;;;;;;6.13;1.23;;;1.20;99.90;;;;;;5021634;28;20038;-55
2024/01/19 00:49:05;;;;;;;3.88;1.05;;;;;;;;;;5019570;28;20037;-57
2024/01/19 00:51:31;;;;;;;4.65;1.10;;;;;;;;;;5025078;28;20563;-58
2024/01/19 00:53:57;;;;;;;7.18;1.33;;;;;;;;;;5026377;28;20045;-57
2024/01/19 00:56:23;;;;;;;5.88;1.30;;;;;;;;;;5023882;28;20093;-56
2024/01/19 00:58:49;;;;;;;6.13;1.33;;;;;;;;;;5026686;28;20045;-58
2024/01/19 01:01:15;;;;;;;7.95;1.50;;;;;;;;;;5024503;28;20497;-55
2024/01/19 01:03:41;;;;;;;6.85;1.27;;;;;;;;;;5025743;28;20064;-57
2024/01/19 01:06:07;;;;;;;6.20;1.35;;;1.10;99.90;;;;;;5026983;28;20505;-58
2024/01/19 01:08:34;;;;;;;9.65;2.08;;;;;;;;;;5023923;28;20116;-56
2024/01/19 01:11:00;;;;;;;4.38;1.42;;;;;;;;;;5024863;28;20052;-57
2024/01/19 01:13:26;;;;;;;7.30;1.70;;;;;;;;;;5024585;28;20401;-57
2024/01/19 01:15:53;;;;;;;8.13;2.28;;;;;;;;;;5012937;28;20068;-57
2024/01/19 01:18:20;;;;;;;5.85;1.88;;;;;;;;;;5028420;28;20046;-58
2024/01/19 01:20:46;;;;;;;9.35;2.20;;;;;;;;;;5025105;28;20046;-58
2024/01/19 01:23:12;;;;;;;10.18;2.13;;;;;;;;;;5026415;28;20044;-58
2024/01/19 01:25:38;;;;;;;9.13;2.05;;;;;;;;;;5022076;28;20041;-55
2024/01/19 01:28:04;;;;;;;5.80;1.45;;;;;;;;;;5017149;28;20057;-57
2024/01/19 01:30:30;;;;;;;6.55;1.50;;;;;;;;;;5024048;28;20069;-57
2024/01/19 01:32:56;;;;;;;7.35;1.58;;;;;;;;;;5029869;28;20543;-56
2024/01/19 01:35:22;;;;;;;9.10;1.70;;;;;;;;;;5028670;28;20037;-55
2024/01/19 01:37:48;;;;;;;6.72;1.77;;;;;;;;;;5029411;28;20652;-57
2024/01/19 01:40:14;;;;;;;10.50;1.40;;;;;;;;;;5030872;28;20037;-56
2024/01/19 01:42:40;;;;;;;5.50;1.45;;;;;;;;;;5019512;28;20048;-54
2024/01/19 01:45:07;;;;;;;5.85;1.88;;;;;;;;;;5024639;28;20112;-56
2024/01/19 01:47:34;;;;;;;11.05;2.55;;;;;;;;;;5027434;28;20033;-55
2024/01/19 01:50:00;;;;;;;5.22;2.20;;;;;;;;;;5029269;28;20053;-56
2024/01/19 01:52:26;;;;;;;7.47;1.65;;;;;;;;;;5029671;28;20096;-57
2024/01/19 01:54:53;;;;;;;7.00;1.70;;;;;;;;;;5028540;28;20128;-57
2024/01/19 01:57:20;;;;;;;9.02;1.90;;;;;;;;;;5029332;28;20080;-55
2024/01/19 01:59:49;;;;;;;7.22;1.67;;;2.10;99.90;;;;;;5020590;28;20046;-56
2024/01/19 02:02:15;;;;;;;14.27;2.95;;;1.50;99.90;;;;;;5024599;28;20041;-55
2024/01/19 02:04:41;;;;;;;7.63;1.67;;;;;;;;;;5029345;28;20409;-56
2024/01/19 02:07:08;;;;;;;9.82;2.00;;;1.80;99.90;;;;;;5029289;28;20037;-56
2024/01/19 02:09:34;;;;;;;6.57;1.73;;;;;;;;;;5026264;28;20037;-55
2024/01/19 02:12:00;;;;;;;7.72;1.70;;;;;;;;;;5030098;28;20041;-56
2024/01/19 02:14:26;;;;;;;5.68;1.50;;;;;;;;;;5027017;28;20041;-55
2024/01/19 02:16:52;;;;;;;5.82;1.23;;;1.60;99.90;;;;;;5030038;28;20049;-56
2024/01/19 02:19:18;;;;;;;8.63;1.50;;;;;;;;;;5026812;28;20037;-56
2024/01/19 02:21:44;;;;;;;8.73;2.05;;;;;;;;;;5028921;28;20048;-56
2024/01/19 02:24:14;;;;;;;7.07;1.55;;;;;;;;;;5026053;28;20041;-57
2024/01/19 02:26:40;;;;;;;5.53;2.53;;;;;;;;;;5027631;28;20137;-56
2024/01/19 02:29:06;;;;;;;6.80;1.40;;;;;;;;;;5028371;28;20051;-55
2024/01/19 02:31:32;;;;;;;6.82;1.60;;;;;;;;;;5025149;28;20038;-57
2024/01/19 02:33:58;;;;;;;8.70;1.65;;;1.50;99.90;;;;;;5029565;28;20033;-55
2024/01/19 02:36:24;;;;;;;8.38;2.65;;;1.70;99.90;;;;;;5029558;28;20037;-57
2024/01/19 02:38:49;;;;;;;7.53;1.60;;;1.80;99.90;;;;;;5029025;28;20147;-54
2024/01/19 02:41:15;;;;;;;6.07;1.38;;;;;;;;;;5020036;28;20051;-56
2024/01/19 02:43:41;;;;;;;10.40;1.80;;;;;;;;;;5016847;28;20045;-54
2024/01/19 02:46:08;;;;;;;6.90;1.40;;;;;;;;;;5027586;28;20133;-58
2024/01/19 02:48:34;;;;;;;7.07;1.23;;;;;;;;;;5026341;28;20064;-58
2024/01/19 02:51:00;;;;;;;8.73;1.30;;;;;;;;;;5028381;28;20488;-57
2024/01/19 02:53:25;;;;;;;4.18;1.10;;;1.40;99.90;;;;;;5026546;28;20076;-58
2024/01/19 02:55:51;;;;;;;5.97;1.25;;;;;;;;;;5024906;28;20590;-58
2024/01/19 02:58:17;;;;;;;3.55;1.00;;;;;;;;;;5029051;28;20040;-58
2024/01/19 03:00:44;;;;;;;5.07;1.48;;;1.40;99.90;;;;;;5028666;28;20496;-56
2024/01/19 03:03:09;;;;;;;3.97;1.13;;;1.30;99.90;;;;;;5026167;28;20033;-56
2024/01/19 03:05:35;;;;;;;3.67;1.52;;;;;;;;;;5028485;28;20038;-58
2024/01/19 03:08:02;;;;;;;4.78;1.30;;;;;;;;;;5027654;28;20714;-58
2024/01/19 03:10:28;;;;;;;7.80;1.20;;;;;;;;;;5024245;28;20037;-57
2024/01/19 03:12:54;;;;;;;6.25;1.20;;;;;;;;;;5016663;28;20403;-57
2024/01/19 03:15:20;;;;;;;6.68;1.17;;;;;;;;;;5024085;28;20039;-58
2024/01/19 03:17:45;;;;;;;10.48;2.00;;;1.00;99.90;;;;;;5026333;28;20045;-58
2024/01/19 03:20:11;;;;;;;4.53;1.20;;;;;;;;;;5028616;28;20407;-55
2024/01/19 03:22:37;;;;;;;3.97;1.10;;;;;;;;;;5028576;28;20033;-58
2024/01/19 03:25:03;;;;;;;5.43;1.10;;;;;;;;;;5028987;28;20043;-58
2024/01/19 03:27:29;;;;;;;6.38;1.42;;;;;;;;;;5029543;28;20045;-55
2024/01/19 03:29:55;;;;;;;7.45;1.30;;;0.90;99.90;;;;;;5028005;28;20493;-57
2024/01/19 03:32:21;;;;;;;6.63;1.33;;;;;;;;;;5026482;28;20044;-57
2024/01/19 03:34:47;;;;;;;6.10;1.45;;;;;;;;;;5028330;28;20042;-57
2024/01/19 03:37:14;;;;;;;10.85;2.15;;;;;;;;;;5029470;28;20041;-58
2024/01/19 03:39:40;;;;;;;16.58;2.97;;;;;;;;;;5010411;28;20493;-56
2024/01/19 03:42:06;;;;;;;9.55;2.00;;;;;;;;;;5023636;28;20164;-57
2024/01/19 03:44:31;;;;;;;15.23;3.40;;;1.30;99.90;;;;;;5024647;28;20116;-58
2024/01/19 03:46:59;;;;;;;8.63;2.17;;;;;;;;;;5005129;28;20100;-57
2024/01/19 03:49:25;;;;;;;7.90;1.65;;;;;;;;;;5029038;28;20100;-58
2024/01/19 03:52:00;;;;;;;9.27;2.63;;;;;;;;;;5021338;28;20516;-56
2024/01/19 03:54:29;;;;;;;9.93;2.28;;;;;;;;;;5020154;28;20373;-56
2024/01/19 03:56:57;;;;;;;11.07;1.83;;;1.30;99.90;;;;;;5027710;28;20052;-55
2024/01/19 03:59:23;;;;;;;9.13;2.00;;;;;;;;;;5028179;28;20045;-55
2024/01/19 04:01:50;;;;;;;6.55;2.17;;;;;;;;;;5023322;28;20044;-54
2024/01/19 04:04:16;;;;;;;6.78;2.45;;;;;;;;;;5027898;28;20030;-57
2024/01/19 04:06:42;;;;;;;8.50;2.65;;;;;;;;;;5027652;28;20049;-56
2024/01/19 04:09:08;;;;;;;5.88;1.58;;;;;;;;;;5028181;28;20034;-57
2024/01/19 04:11:35;;;;;;;6.38;1.60;;;;;;;;;;5009368;28;20092;-56
2024/01/19 04:14:01;;;;;;;6.45;1.65;;;;;;;;;;5014982;28;20045;-57
2024/01/19 04:16:27;;;;;;;9.43;1.60;;;;;;;;;;5007529;28;20080;-54
2024/01/19 04:18:53;;;;;;;7.70;2.17;;;;;;;;;;5027747;28;20092;-56
2024/01/19 04:21:19;;;;;;;5.55;1.35;;;;;;;;;;5027678;28;20044;-56
2024/01/19 04:23:45;;;;;;;6.40;1.50;;;;;;;;;;5027402;28;20034;-54
2024/01/19 04:26:11;;;;;;;6.80;1.77;;;;;;;;;;5028068;28;20037;-57
2024/01/19 04:28:37;;;;;;;6.38;1.80;;;0.90;99.90;;;;;;5028673;28;20033;-55
2024/01/19 04:31:04;;;;;;;6.03;1.33;;;;;;;;;;5022269;28;20104;-55
2024/01/19 04:33:29;;;;;;;6.95;1.98;;;0.80;99.90;;;;;;5026641;28;20044;-57
2024/01/19 04:35:55;;;;;;;6.38;1.42;;;0.80;99.90;;;;;;5025605;28;20412;-55
2024/01/19 04:38:21;;;;;;;8.00;1.30;;;;;;;;;;5021760;28;20056;-57
2024/01/19 04:40:47;;;;;;;8.88;1.75;;;;;;;;;;5026360;28;20045;-56
2024/01/19 04:43:12;;;;;;;7.55;1.63;;;0.70;99.90;;;;;;5027549;28;21340;-56
2024/01/19 04:45:38;;;;;;;9.05;2.10;;;;;;;;;;5023373;28;20125;-57
2024/01/19 04:48:04;;;;;;;7.05;1.40;;;;;;;;;;5024841;28;20042;-55
2024/01/19 04:50:30;;;;;;;8.52;2.10;;;0.70;99.90;;;;;;5026497;28;20073;-56
2024/01/19 04:52:56;;;;;;;8.75;1.83;;;;;;;;;;5023017;28;20085;-55
2024/01/19 04:55:22;;;;;;;8.10;1.90;;;;;;;;;;5023351;28;20512;-54
2024/01/19 04:57:50;;;;;;;6.68;1.52;;;;;;;;;;5024424;28;20048;-56
2024/01/19 05:00:15;;;;;;;8.05;1.50;;;0.50;99.90;;;;;;5023908;28;20041;-56
2024/01/19 05:02:42;;;;;;;6.80;1.60;;;;;;;;;;5027225;28;20411;-54
2024/01/19 05:05:07;;;;;;;11.15;1.58;;;0.70;99.90;;;;;;5025238;28;20409;-55
2024/01/19 05:07:34;;;;;;;10.00;2.22;;;;;;;;;;5031923;28;20038;-56
2024/01/19 05:09:59;;;;;;;8.43;1.73;;;0.60;99.90;;;;;;5026316;28;20417;-56
2024/01/19 05:12:26;;;;;;;7.15;1.75;;;;;;;;;;5028188;28;20037;-56
2024/01/19 05:14:52;;;;;;;13.60;2.35;;;;;;;;;;5029753;28;20041;-57
2024/01/19 05:17:18;;;;;;;11.07;2.20;;;;;;;;;;5030701;28;20400;-57
2024/01/19 05:19:44;;;;;;;8.15;2.70;;;;;;;;;;5027946;28;20072;-58
2024/01/19 05:22:10;;;;;;;9.57;1.95;;;;;;;;;;5028741;28;20069;-58
2024/01/19 05:24:43;;;;;;;7.35;1.60;;;0.70;99.90;;;;;;5029987;28;20034;-58
2024/01/19 05:27:09;;;;;;;10.00;3.30;;;;;;;;;;5024775;28;20033;-58
2024/01/19 05:29:36;;;;;;;6.75;1.50;;;;;;;;;;5009016;28;20038;-58
2024/01/19 05:32:02;;;;;;;8.05;1.88;;;0.80;99.90;;;;;;5014661;28;20043;-57
2024/01/19 05:34:28;;;;;;;10.82;1.88;;;0.70;99.90;;;;;;5018221;28;20777;-58
2024/01/19 05:36:54;;;;;;;9.25;2.70;;;;;;;;;;5020303;28;20132;-56
2024/01/19 05:39:20;;;;;;;15.02;3.42;;;;;;;;;;5025532;28;20091;-58
2024/01/19 05:41:46;;;;;;;5.40;2.38;;;;;;;;;;5024399;28;20477;-57
2024/01/19 05:44:12;;;;;;;7.53;1.83;;;;;;;;;;5023614;28;20497;-56
2024/01/19 05:46:38;;;;;;;18.42;2.50;;;;;;;;;;5021080;28;20033;-57
2024/01/19 05:49:04;;;;;;;11.45;1.60;;;;;;;;;;5027427;28;20037;-55
2024/01/19 05:51:31;;;;;;;8.00;1.80;;;1.10;99.90;;;;;;5024059;28;20038;-57
2024/01/19 05:53:58;;;;;;;12.82;2.25;;;1.20;99.90;;;;;;5016152;28;20111;-55
2024/01/19 05:56:24;;;;;;;8.80;1.83;;;;;;;;;;5017598;28;20048;-58
2024/01/19 05:58:50;;;;;;;9.73;2.13;;;;;;;;;;5025824;28;20041;-58
2024/01/19 06:01:16;;;;;;;9.43;2.30;;;1.30;99.90;;;;;;5021648;28;20485;-58
2024/01/19 06:03:42;;;;;;;13.10;2.28;;;;;;;;;;5014690;28;20045;-56
2024/01/19 06:06:08;;;;;;;10.18;2.33;;;1.30;99.90;;;;;;5022133;28;20037;-54
2024/01/19 06:08:34;;;;;;;9.82;2.20;;;;;;;;;;5017900;28;20391;-55
2024/01/19 06:11:00;;;;;;;12.10;2.03;;;;;;;;;;5022223;28;20042;-57
2024/01/19 06:13:26;;;;;;;16.40;3.33;;;;;;;;;;5025521;28;20099;-55
2024/01/19 06:15:51;;;;;;;10.90;2.22;;;;;;;;;;5020812;28;20041;-55
2024/01/19 06:18:18;;;;;;;15.25;3.30;;;;;;;;;;5024367;28;20045;-56
2024/01/19 06:20:43;;;;;;;11.20;2.05;;;0.90;99.90;;;;;;5019556;28;20038;-57
2024/01/19 06:23:10;;;;;;;12.82;2.92;;;;;;;;;;5023361;28;20386;-55
2024/01/19 06:25:36;;;;;;;11.30;2.92;;;0.80;99.90;;;;;;5025275;28;20440;-58
2024/01/19 06:28:02;;;;;;;10.98;2.15;;;0.70;99.90;;;;;;5020674;28;20034;-57
2024/01/19 06:30:29;;;;;;;8.73;2.55;;;;;;;;;;5018402;28;20030;-57
2024/01/19 06:32:55;;;;;;;12.48;3.28;;;;;;;;;;5024772;28;20037;-56
2024/01/19 06:35:20;;;;;;;11.43;2.20;;;0.80;99.90;;;;;;5025921;28;20041;-55
2024/01/19 06:37:46;;;;;;;12.57;2.50;;;;;;;;;;5015255;28;20477;-58
2024/01/19 06:40:14;;;;;;;10.75;2.58;;;;;;;;;;5026084;28;20048;-57
2024/01/19 06:42:40;;;;;;;11.88;2.47;;;;;;;;;;5019090;28;20520;-58
2024/01/19 06:45:07;;;;;;;10.60;2.30;;;;;;;;;;5021222;28;20051;-57
2024/01/19 06:47:33;;;;;;;9.18;2.67;;;;;;;;;;5029986;28;20045;-59
2024/01/19 06:49:59;;;;;;;11.98;2.58;;;;;;;;;;5025022;28;20037;-54
2024/01/19 06:52:25;;;;;;;12.68;2.47;;;;;;;;;;5029804;28;20037;-54
2024/01/19 06:54:51;;;;;;;11.25;2.35;;;;;;;;;;5029654;28;20085;-55
2024/01/19 06:57:17;;;;;;;9.13;2.47;;;;;;;;;;5021609;28;20053;-54
2024/01/19 06:59:42;;;;;;;7.35;2.88;;;0.60;99.90;;;;;;5029274;28;20504;-54
2024/01/19 07:02:08;;;;;;;11.73;2.53;;;;;;;;;;5028615;28;20040;-56
2024/01/19 07:04:34;;;;;;;10.82;2.40;;;;;;;;;;5030157;28;20465;-58
2024/01/19 07:07:00;;;;;;;9.82;2.17;;;;;;;;;;5028987;28;20083;-57
2024/01/19 07:09:27;;;;;;;12.15;2.50;;;;;;;;;;5029179;28;20044;-54
2024/01/19 07:11:53;;;;;;;13.30;3.75;;;;;;;;;;5029083;28;20046;-54
2024/01/19 07:14:19;;;;;;;10.55;2.90;;;;;;;;;;5028681;28;20799;-56
2024/01/19 07:16:45;;;;;;;11.52;3.30;;;;;;;;;;5029137;28;20041;-56
2024/01/19 07:19:11;;;;;;;15.32;3.58;;;;;;;;;;5026835;28;20037;-54
2024/01/19 07:21:40;;;;;;;11.38;3.60;;;;;;;;;;5027662;28;20083;-58
2024/01/19 07:24:07;;;;;;;23.08;4.82;;;;;;;;;;5025766;28;20064;-57
2024/01/19 07:26:33;;;;;;;18.70;3.22;;;;;;;;;;5007974;28;20113;-57
2024/01/19 07:29:04;;;;;;;14.90;4.07;;;;;;;;;;5024485;28;20065;-58
2024/01/19 07:31:30;;;;;;;12.23;2.42;;;0.90;99.90;;;;;;5025920;28;20041;-58
2024/01/19 07:33:55;;;;;;;14.38;3.22;;;0.90;99.90;;;;;;5029232;28;20112;-57
2024/01/19 07:36:21;;;;;;;10.57;2.50;;;;;;;;;;5024358;28;20116;-57
2024/01/19 07:38:47;;;;;;;14.98;2.75;;;0.90;99.90;;;;;;5030885;28;20037;-57
2024/01/19 07:41:13;;;;;;;12.93;2.40;;;;;;;;;;5018461;28;20054;-58
2024/01/19 07:43:39;;;;;;;11.70;3.03;;;;;;;;;;5034265;28;20523;-58
2024/01/19 07:46:05;;;;;;;15.45;2.58;;;;;;;;;;5014442;28;20046;-59
2024/01/19 07:48:31;;;;;;;13.73;3.35;;;;;;;;;;5028808;28;20481;-59
2024/01/19 07:50:57;;;;;;;14.15;2.45;;;;;;;;;;5028228;28;20539;-59
2024/01/19 07:53:23;;;;;;;10.05;2.38;;;0.90;99.90;;;;;;5031114;28;20056;-59
2024/01/19 07:55:49;;;;;;;9.15;2.20;;;0.90;99.90;;;;;;5036436;28;20037;-60
2024/01/19 07:58:16;;;;;;;23.15;3.85;;;;;;;;;;5027954;28;20467;-60
2024/01/19 08:00:42;;;;;;;12.15;2.30;;;;;;;;;;5027360;28;20060;-57
2024/01/19 08:03:08;;;;;;;26.88;2.97;;;0.70;99.90;;;;;;5024316;28;20045;-55
2024/01/19 08:05:34;;;;;;;13.30;3.03;;;;;;;;;;5014788;28;20029;-58
2024/01/19 08:08:00;;;;;;;10.75;2.90;;;;;;;;;;5016927;28;20034;-56
2024/01/19 08:10:26;;;;;;;13.43;2.40;;;;;;;;;;5020264;28;20045;-58
2024/01/19 08:12:52;;;;;;;9.60;2.67;;;;;;;;;;5019118;28;20072;-59
2024/01/19 08:15:18;;;;;;;14.38;2.55;;;;;;;;;;5019818;28;20042;-58
2024/01/19 08:17:44;;;;;;;11.52;3.10;;;;;;;;;;5004754;28;20180;-57
2024/01/19 08:20:10;;;;;;;13.45;3.67;;;;;;;;;;5018646;28;20502;-58
2024/01/19 08:22:37;;;;;;;12.98;2.65;;;;;;;;;;5019631;28;20587;-59
2024/01/19 08:25:04;;;;;;;12.73;2.92;;;0.40;99.90;;;;;;5018880;28;20049;-59
2024/01/19 08:27:30;;;;;;;12.43;2.88;;;0.90;99.90;;;;;;5021584;28;20087;-59
2024/01/19 08:29:56;;;;;;;8.73;2.47;;;;;;;;;;5022025;28;20448;-57
2024/01/19 08:32:26;;;;;;;9.55;2.25;;;;;;;;;;5021024;28;20049;-59
2024/01/19 08:34:52;;;;;;;15.98;3.05;;;;;;;;;;5018232;28;20048;-59
2024/01/19 08:37:18;;;;;;;8.15;2.63;;;;;;;;;;5023450;28;20420;-57
2024/01/19 08:39:45;;;;;;;14.88;3.30;;;;;;;;;;5028282;28;20083;-59
2024/01/19 08:42:10;;;;;;;10.73;2.42;;;1.00;99.90;;;;;;5021923;28;20045;-58
2024/01/19 08:44:36;;;;;;;12.18;3.40;;;;;;;;;;5025282;28;20041;-58
2024/01/19 08:47:02;;;;;;;13.48;2.80;;;;;;;;;;5018888;28;20070;-58
2024/01/19 08:49:29;;;;;;;12.18;2.45;;;;;;;;;;5020595;28;20045;-57
2024/01/19 08:51:55;;;;;;;16.15;3.75;;;;;;;;;;5025470;28;20103;-59
2024/01/19 08:54:22;;;;;;;10.10;2.92;;;;;;;;;;5025002;28;20033;-59
2024/01/19 08:56:48;;;;;;;12.13;2.30;;;;;;;;;;5019306;28;20507;-57
2024/01/19 08:59:14;;;;;;;10.32;2.42;;;;;;;;;;5023077;28;20099;-58
2024/01/19 09:01:40;;;;;;;11.90;2.92;;;1.20;99.90;;;;;;5022060;28;20053;-59
2024/01/19 09:04:06;;;;;;;14.10;3.20;;;;;;;;;;5022687;28;20037;-58
2024/01/19 09:06:32;;;;;;;11.70;2.17;;;;;;;;;;5021780;28;20032;-58
2024/01/19 09:09:01;;;;;;;10.05;2.88;;;;;;;;;;5024591;28;20045;-57
2024/01/19 09:11:27;;;;;;;10.60;2.30;;;;;;;;;;5023263;28;20150;-59
2024/01/19 09:13:53;;;;;;;10.32;2.50;;;;;;;;;;5005370;28;20042;-57
2024/01/19 09:16:19;;;;;;;9.63;2.50;;;1.50;99.90;;;;;;5026484;28;20045;-56
2024/01/19 09:18:45;;;;;;;10.98;2.60;;;1.50;99.90;;;;;;5032699;28;20048;-58
2024/01/19 09:21:17;;;;;;;10.88;2.83;;;1.00;99.90;;;;;;5029846;28;20046;-58
2024/01/19 09:23:43;;;;;;;13.07;2.80;;;;;;;;;;5032956;28;20033;-56
2024/01/19 09:26:17;;;;;;;9.48;2.13;;;1.40;99.90;;;;;;5030698;28;20040;-58
2024/01/19 09:28:43;;;;;;;9.90;2.70;;;;;;;;;;5027560;28;20041;-59
2024/01/19 09:31:09;;;;;;;12.48;2.47;;;1.80;99.90;;;;;;5030273;28;20039;-55
2024/01/19 09:33:34;;;;;;;11.05;2.63;;;;;;;;;;5027362;28;20036;-59
2024/01/19 09:36:00;;;;;;;8.73;2.47;;;;;;;;;;5030983;28;20049;-57
2024/01/19 09:38:26;;;;;;;11.40;2.15;;;;;;;;;;5031111;28;20107;-57
2024/01/19 09:40:58;;;;;;;15.85;3.45;;;;;;;;;;5030944;28;20041;-56
2024/01/19 09:43:24;;;;;;;12.45;2.80;;;2.20;99.90;;;;;;5034017;28;20043;-57
2024/01/19 09:45:51;;;;;;;9.10;2.42;;;;;;;;;;5030847;28;20124;-57
2024/01/19 09:48:24;;;;;;;17.08;3.92;;;2.50;99.90;;;;;;5028018;28;20418;-56
2024/01/19 09:50:55;;;;;;;14.15;3.42;;;;;;;;;;5030200;28;20042;-57
2024/01/19 09:53:23;;;;;;;14.48;2.78;;;;;;;;;;5030389;28;20077;-56
2024/01/19 09:55:49;;;;;;;10.70;3.17;;;;;;;;;;5028419;28;20080;-58
2024/01/19 09:58:16;;;;;;;10.10;2.28;;;2.50;99.90;;;;;;5029072;28;20513;-59
2024/01/19 10:00:42;;;;;;;11.07;2.78;;;;;;;;;;5007177;28;20046;-57
2024/01/19 10:03:09;;;;;;;11.73;2.58;;;;;;;;;;5031046;28;20045;-55
2024/01/19 10:05:38;;;;;;;11.23;3.25;;;2.30;99.90;;;;;;5010046;28;20061;-55
2024/01/19 10:08:04;;;;;;;15.57;3.08;;;;;;;;;;5030285;28;20562;-56
2024/01/19 10:10:30;;;;;;;14.05;2.70;;;;;;;;;;5027237;28;20136;-57
2024/01/19 10:12:56;;;;;;;24.85;2.85;;;2.40;99.90;;;;;;5031698;28;20128;-55
2024/01/19 10:15:22;;;;;;;14.50;2.53;;;;;;;;;;5032798;28;20481;-55
2024/01/19 10:17:48;;;;;;;11.93;3.00;;;;;;;;;;5012061;28;20049;-58
2024/01/19 10:20:15;;;;;;;10.60;2.85;;;2.10;99.90;;;;;;5032902;28;20049;-56
2024/01/19 10:22:42;;;;;;;10.90;2.95;;;;;;;;;;5029172;28;20099;-56
2024/01/19 10:25:12;;;;;;;10.55;2.85;;;2.30;99.90;;;;;;5030616;28;20117;-57
2024/01/19 10:27:50;;;;;;;11.27;2.60;;;;;;;;;;5029374;28;20559;-58
2024/01/19 10:30:16;;;;;;;11.55;2.17;;;2.60;99.90;;;;;;5029875;28;20037;-57
2024/01/19 10:32:44;;;;;;;8.52;2.40;;;;;;;;;;5030036;28;20455;-57
2024/01/19 10:35:11;;;;;;;8.95;1.90;;;;;;;;;;5030029;28;20496;-57
2024/01/19 10:37:37;;;;;;;9.55;2.33;;;;;;;;;;5028799;28;20041;-58
2024/01/19 10:40:17;;;;;;;10.50;2.97;;;;;;;;;;5029289;28;20041;-63
2024/01/19 10:42:43;;;;;;;13.77;2.47;;;3.00;99.90;;;;;;5029361;28;20416;-69
2024/01/19 10:45:19;;;;;;;13.07;2.88;;;3.10;99.90;;;;;;5029992;28;20120;-62
2024/01/19 10:47:46;;;;;;;10.48;2.45;;;3.80;99.90;;;;;;5012116;28;20060;-62
2024/01/19 10:50:14;;;;;;;8.48;2.50;;;;;;;;;;5029842;28;20037;-62
2024/01/19 10:52:40;;;;;;;7.78;1.83;;;3.20;99.90;;;;;;5027921;28;20073;-62
2024/01/19 10:55:06;;;;;;;13.93;2.47;;;;;;;;;;5031168;28;20473;-63
2024/01/19 10:57:32;;;;;;;6.30;1.77;;;3.50;99.90;;;;;;5028134;28;20409;-62
2024/01/19 11:02:29;;;;;;;10.85;2.78;;;;;;;;;;5013269;28;20041;-66
2024/01/19 11:04:55;;;;;;;7.78;2.00;;;;;;;;;;5026399;28;20129;-64
2024/01/19 11:07:21;;;;;;;9.40;2.28;;;;;;;;;;5018382;28;20125;-64
2024/01/19 11:09:47;;;;;;;11.02;3.55;;;;;;;;;;5027254;28;20038;-63
2024/01/19 11:12:17;;;;;;;12.07;2.88;;;;;;;;;;5019641;28;20517;-63
2024/01/19 11:14:44;;;;;;;14.52;2.75;;;;;;;;;;5027658;28;20504;-64
2024/01/19 11:17:11;;;;;;;8.88;1.80;;;;;;;;;;5030745;28;20386;-64
2024/01/19 11:19:37;;;;;;;12.32;3.33;;;;;;;;;;5028988;28;20045;-65
2024/01/19 11:22:03;;;;;;;10.13;2.08;;;;;;;;;;5029916;28;20033;-65
2024/01/19 11:24:33;;;;;;;11.90;2.28;;;;;;;;;;5019480;28;20120;-64
2024/01/19 11:27:19;;;;;;;6.82;2.25;;;;;;;;;;5030056;28;20107;-64
2024/01/19 11:29:46;;;;;;;11.68;2.38;;;;;;;;;;5027981;28;20037;-64
2024/01/19 11:32:14;;;;;;;7.85;1.83;;;;;;;;;;5029529;28;20091;-64
2024/01/19 11:34:50;;;;;;;9.95;2.45;;;3.60;99.90;;;;;;5029013;28;20480;-64
2024/01/19 11:37:51;;;;;;;12.75;2.53;;;;;;;;;;5030247;28;20100;-64
2024/01/19 11:40:29;;;;;;;8.40;1.65;;;;;;;;;;4983373;28;20097;-64
2024/01/19 11:42:55;;;;;;;11.95;2.53;;;4.30;99.90;;;;;;5006491;28;20064;-64
2024/01/19 11:45:27;;;;;;;9.52;2.28;;;;;;;;;;5032140;28;20029;-65
2024/01/19 11:47:53;;;;;;;7.55;1.85;;;;;;;;;;5029455;28;20039;-65
2024/01/19 11:50:39;;;;;;;9.02;1.60;;;;;;;;;;5029252;28;20079;-64
2024/01/19 11:53:05;;;;;;;9.73;2.03;;;;;;;;;;5029105;28;20361;-65
2024/01/19 11:55:31;;;;;;;8.18;1.70;;;;;;;;;;5028397;28;20120;-64
2024/01/19 11:57:57;;;;;;;9.45;1.98;;;;;;;;;;5029579;28;20033;-65
2024/01/19 12:00:23;;;;;;;7.13;1.85;;;4.70;99.90;;;;;;5028487;28;20054;-64
2024/01/19 12:02:54;;;;;;;9.73;2.63;;;4.80;99.90;;;;;;5028187;28;20034;-65
2024/01/19 12:05:25;;;;;;;10.07;2.13;;;4.40;99.90;;;;;;5029132;28;20029;-65
2024/01/19 12:08:00;;;;;;;7.32;2.08;;;;;;;;;;5028752;28;20043;-66
2024/01/19 12:10:26;;;;;;;8.30;1.73;;;5.70;99.90;;;;;;5028810;28;20064;-64
2024/01/19 12:12:53;;;;;;;7.07;1.90;;;;;;;;;;5028024;28;20034;-64
2024/01/19 12:15:19;;;;;;;9.30;2.45;;;7.30;99.90;;;;;;5029124;28;20045;-64
2024/01/19 12:17:45;;;;;;;9.05;2.00;;;;;;;;;;5025791;28;20493;-65
2024/01/19 12:20:16;;;;;;;6.45;1.65;;;8.80;99.90;;;;;;5028551;28;20033;-64
2024/01/19 12:22:44;;;;;;;6.93;1.40;;;;;;;;;;5029403;28;20037;-65
2024/01/19 12:25:17;;;;;;;6.80;1.90;;;;;;;;;;5029010;28;20065;-65
2024/01/19 12:27:44;;;;;;;7.53;1.43;;;;;;;;;;5027874;28;20045;-65
2024/01/19 12:30:14;;;;;;;8.73;1.50;;;;;;;;;;5028666;28;20040;-66
2024/01/19 12:32:40;;;;;;;8.30;1.50;;;;;;;;;;5027997;28;20037;-66
2024/01/19 12:35:06;;;;;;;7.47;1.85;;;;;;;;;;5029342;28;20037;-65
2024/01/19 12:37:33;;;;;;;5.15;1.38;;;;;;;;;;5028313;28;20033;-65
2024/01/19 12:40:12;;;;;;;7.40;1.95;;;;;;;;;;5028433;28;20120;-66
2024/01/19 12:42:38;;;;;;;6.15;1.38;;;;;;;;;;5024768;28;20038;-66
2024/01/19 12:45:04;;;;;;;7.05;1.70;;;;;;;;;;5028392;28;20040;-65
2024/01/19 12:47:30;;;;;;;5.90;1.42;;;;;;;;;;5010897;28;20034;-65
2024/01/19 12:49:59;;;;;;;7.88;1.55;;;;;;;;;;5028505;28;20041;-65
2024/01/19 12:52:25;;;;;;;5.50;1.90;;;;;;;;;;5028288;28;20044;-65
2024/01/19 12:54:51;;;;;;;7.85;1.50;;;;;;;;;;5027756;28;20057;-65
2024/01/19 12:57:18;;;;;;;5.90;1.33;;;;;;;;;;5028453;28;20136;-65
2024/01/19 12:59:44;;;;;;;8.10;1.75;;;;;;;;;;5009703;28;20045;-65
2024/01/19 13:02:11;;;;;;;3.65;1.40;;;;;;;;;;5028106;28;20048;-65
2024/01/19 13:04:37;;;;;;;6.80;1.67;;;12.50;99.90;;;;;;5027938;28;20041;-65
2024/01/19 13:07:06;;;;;;;8.35;1.73;;;;;;;;;;5011982;28;20045;-65
2024/01/19 13:09:32;;;;;;;7.82;2.00;;;;;;;;;;5028250;28;20037;-65
2024/01/19 13:12:11;;;;;;;8.05;1.85;;;13.80;99.90;;;;;;5028068;28;20369;-67
2024/01/19 13:14:36;;;;;;;7.70;1.77;;;13.50;99.90;;;;;;5026303;28;20108;-65
2024/01/19 13:17:07;;;;;;;9.45;2.10;;;14.00;99.90;;;;;;5003918;28;20124;-65
2024/01/19 13:19:45;;;;;;;9.07;2.20;;;;;;;;;;5028260;28;20085;-65
2024/01/19 13:22:11;;;;;;;12.02;2.38;;;;;;;;;;5022758;28;20137;-64
2024/01/19 13:24:37;;;;;;;8.10;2.13;;;;;;;;;;5028098;28;20063;-65
2024/01/19 13:27:02;;;;;;;9.75;2.10;;;13.20;99.90;;;;;;5032783;28;20057;-64
2024/01/19 13:29:29;;;;;;;8.82;2.45;;;;;;;;;;5031652;28;20041;-67
2024/01/19 13:31:56;;;;;;;5.63;2.42;;;;;;;;;;5031508;28;20044;-65
2024/01/19 13:34:27;;;;;;;9.55;2.58;;;12.70;99.90;;;;;;5032030;28;20084;-64
2024/01/19 13:36:53;;;;;;;8.27;2.92;;;;;;;;;;5031468;28;20045;-65
2024/01/19 13:39:19;;;;;;;10.48;2.92;;;13.20;99.90;;;;;;5031829;28;20041;-64
2024/01/19 13:41:45;;;;;;;9.05;2.30;;;;;;;;;;5031081;28;20087;-64
2024/01/19 13:44:11;;;;;;;10.70;2.40;;;;;;;;;;5032073;28;20358;-65
2024/01/19 13:46:37;;;;;;;9.18;2.42;;;;;;;;;;5031167;28;20030;-66
2024/01/19 13:49:03;;;;;;;7.68;3.42;;;;;;;;;;5031827;28;20037;-64
2024/01/19 13:51:29;;;;;;;8.23;2.60;;;;;;;;;;5031167;28;20493;-65
2024/01/19 13:53:55;;;;;;;6.65;2.30;;;;;;;;;;5030856;28;20037;-64
2024/01/19 13:56:21;;;;;;;7.13;1.95;;;;;;;;;;5031365;28;20495;-64
2024/01/19 13:58:50;;;;;;;10.65;2.33;;;;;;;;;;5030056;28;20057;-64
2024/01/19 14:01:16;;;;;;;9.27;2.00;;;;;;;;;;5029369;28;20529;-64
2024/01/19 14:03:42;;;;;;;6.32;2.17;;;;;;;;;;5030320;28;20489;-65
2024/01/19 14:06:08;;;;;;;11.20;2.92;;;;;;;;;;5031559;28;20512;-65
2024/01/19 14:08:34;;;;;;;11.40;3.85;;;;;;;;;;5031844;28;20041;-64